Time;durP1;ratioP1;P1;durP2;ratioP2;P2;SDS_P1;SDS_P2;PMS_P1;PMS_P2;Temp;Humidity;BMP_temperature;BMP_pressure;BME280_temperature;BME280_humidity;BME280_pressure;Samples;Min_cycle;Max_cycle;Signal;HPM_P1;HPM_P2
2023/03/11 00:01:01;;;;;;;0.88;0.88;;;;;;;;;;5072024;28;20401;-82
2023/03/11 00:03:28;;;;;;;1.33;1.10;;;;;;;;;;5072161;28;21194;-82
2023/03/11 00:05:54;;;;;;;1.40;1.30;;;;;;;;;;5072017;28;20388;-81
2023/03/11 00:08:22;;;;;;;1.45;1.35;;;;;;;;;;5071927;28;20384;-81
2023/03/11 00:10:50;;;;;;;1.25;1.15;;;;;;;;;;5071850;28;20375;-81
2023/03/11 00:13:16;;;;;;;1.52;1.42;;;;;;;;;;5071953;28;20403;-81
2023/03/11 00:15:44;;;;;;;1.30;1.20;;;;;;;;;;5071905;28;20485;-81
2023/03/11 00:18:10;;;;;;;1.10;1.10;;;;;;;;;;5071696;28;20392;-81
2023/03/11 00:20:37;;;;;;;1.30;1.20;;;;;;;;;;5070665;28;20868;-82
2023/03/11 00:23:04;;;;;;;1.45;1.25;;;;;;;;;;5063081;28;20524;-82
2023/03/11 00:25:31;;;;;;;1.40;1.30;;;;;;;;;;5071437;28;20391;-81
2023/03/11 00:27:58;;;;;;;1.40;1.30;;;;;;;;;;5070692;28;20768;-82
2023/03/11 00:30:24;;;;;;;1.30;1.20;;;;;;;;;;5071666;28;20387;-81
2023/03/11 00:32:51;;;;;;;1.50;1.40;;;;;;;;;;5071442;28;20387;-81
2023/03/11 00:35:19;;;;;;;1.27;1.17;;;;;;;;;;5071664;28;20398;-81
2023/03/11 00:37:46;;;;;;;1.25;1.15;;;;;;;;;;5071551;28;20383;-81
2023/03/11 00:40:14;;;;;;;1.35;1.25;;;;;;;;;;5071580;28;20391;-81
2023/03/11 00:42:40;;;;;;;1.10;1.00;;;;;;;;;;5071477;28;20372;-82
2023/03/11 00:45:06;;;;;;;1.30;1.17;;;;;;;;;;5071328;28;20382;-81
2023/03/11 00:47:32;;;;;;;1.10;1.10;;;;;;;;;;5065664;28;20372;-82
2023/03/11 00:49:58;;;;;;;1.33;1.17;;;;;;;;;;5071406;28;20890;-81
2023/03/11 00:52:24;;;;;;;1.30;1.20;;;;;;;;;;5071375;28;20379;-81
2023/03/11 00:54:50;;;;;;;1.40;1.30;;;;;;;;;;5071443;28;20460;-82
2023/03/11 00:57:16;;;;;;;1.40;1.30;;;;;;;;;;5057288;28;20912;-81
2023/03/11 00:59:42;;;;;;;1.30;1.20;;;;;;;;;;5071788;28;20376;-81
2023/03/11 01:02:08;;;;;;;1.00;1.00;;;;;;;;;;5073786;28;20877;-81
2023/03/11 01:04:34;;;;;;;1.52;1.17;;;;;;;;;;5081026;28;20380;-81
2023/03/11 01:07:00;;;;;;;1.40;1.27;;;;;;;;;;5083153;28;20384;-82
2023/03/11 01:09:26;;;;;;;1.60;1.50;;;;;;;;;;5076467;28;20388;-81
2023/03/11 01:11:53;;;;;;;1.50;1.40;;;;;;;;;;5084791;28;20408;-82
2023/03/11 01:14:19;;;;;;;1.30;1.20;;;;;;;;;;5078110;28;20407;-81
2023/03/11 01:16:45;;;;;;;1.40;1.30;;;;;;;;;;5073413;28;20376;-82
2023/03/11 01:19:11;;;;;;;1.35;1.25;;;;;;;;;;5072229;28;20408;-81
2023/03/11 01:21:38;;;;;;;1.30;1.20;;;;;;;;;;5070166;28;20403;-82
2023/03/11 01:24:04;;;;;;;1.40;1.30;;;;;;;;;;5059978;28;20381;-82
2023/03/11 01:26:30;;;;;;;1.50;1.40;;;;;;;;;;5070432;28;20387;-82
2023/03/11 01:28:56;;;;;;;1.60;1.40;;;;;;;;;;5071107;28;20387;-81
2023/03/11 01:31:22;;;;;;;1.42;1.33;;;;;;;;;;5071168;28;20384;-81
2023/03/11 01:33:48;;;;;;;2.50;1.65;;;;;;;;;;5071101;28;20848;-81
2023/03/11 01:36:14;;;;;;;1.60;1.50;;;;;;;;;;5071064;28;20375;-82
2023/03/11 01:38:39;;;;;;;1.60;1.50;;;;;;;;;;5070497;28;20437;-82
2023/03/11 01:41:06;;;;;;;1.50;1.40;;;;;;;;;;5064039;28;20458;-82
2023/03/11 01:43:40;;;;;;;1.42;1.33;;;;;;;;;;5055863;28;20402;-81
2023/03/11 01:46:18;;;;;;;1.50;1.40;;;;;;;;;;5074843;28;20405;-82
2023/03/11 01:48:46;;;;;;;1.57;1.40;;;;;;;;;;5073273;28;20391;-81
2023/03/11 01:51:12;;;;;;;1.30;1.30;;;;;;;;;;5074802;28;20421;-82
2023/03/11 01:53:38;;;;;;;1.65;1.55;;;;;;;;;;5074648;28;20403;-81
2023/03/11 01:56:05;;;;;;;1.67;1.58;;;;;;;;;;5074655;28;20383;-82
2023/03/11 01:58:33;;;;;;;1.50;1.40;;;;;;;;;;5074480;28;20372;-82
2023/03/11 02:00:59;;;;;;;1.40;1.30;;;;;;;;;;5074457;28;20376;-81
2023/03/11 02:03:28;;;;;;;1.65;1.55;;;;;;;;;;5074473;28;20384;-82
2023/03/11 02:05:56;;;;;;;1.70;1.60;;;;;;;;;;5074330;28;20395;-82
2023/03/11 02:08:22;;;;;;;1.70;1.60;;;;;;;;;;5074230;28;20384;-81
2023/03/11 02:10:49;;;;;;;1.63;1.52;;;;;;;;;;5074251;28;20462;-82
2023/03/11 02:13:16;;;;;;;1.67;1.58;;;;;;;;;;5074244;28;20900;-82
2023/03/11 02:15:42;;;;;;;1.50;1.40;;;;;;;;;;5074159;28;20387;-82
2023/03/11 02:18:08;;;;;;;1.48;1.38;;;;;;;;;;5073861;28;20919;-82
2023/03/11 02:20:34;;;;;;;2.03;1.93;;;;;;;;;;5074305;28;20714;-82
2023/03/11 02:23:00;;;;;;;2.00;1.85;;;;;;;;;;5065253;28;20386;-82
2023/03/11 02:25:34;;;;;;;1.80;1.70;;;;;;;;;;5074060;28;20907;-82
2023/03/11 02:28:00;;;;;;;1.65;1.55;;;;;;;;;;5073869;28;20375;-82
2023/03/11 02:30:26;;;;;;;1.60;1.50;;;;;;;;;;5073988;28;20387;-82
2023/03/11 02:32:52;;;;;;;1.67;1.55;;;;;;;;;;5073866;28;20371;-82
2023/03/11 02:35:19;;;;;;;1.60;1.50;;;;;;;;;;5073911;28;20433;-82
2023/03/11 02:37:45;;;;;;;1.60;1.50;;;;;;;;;;5052956;28;20941;-82
2023/03/11 02:40:25;;;;;;;1.70;1.60;;;;;;;;;;5056456;28;20388;-82
2023/03/11 02:42:54;;;;;;;1.90;1.40;;;;;;;;;;5062974;28;20471;-82
2023/03/11 02:45:21;;;;;;;1.67;1.58;;;;;;;;;;5072361;28;20379;-82
2023/03/11 02:47:48;;;;;;;1.45;1.35;;;;;;;;;;5072587;28;20413;-82
2023/03/11 02:50:15;;;;;;;1.77;1.67;;;;;;;;;;5072402;28;20388;-82
2023/03/11 02:52:42;;;;;;;1.50;1.40;;;;;;;;;;5073632;28;20376;-82
2023/03/11 02:55:10;;;;;;;1.63;1.52;;;;;;;;;;5072829;28;20395;-82
2023/03/11 02:57:36;;;;;;;1.60;1.42;;;;;;;;;;5073565;28;20861;-82
2023/03/11 03:00:09;;;;;;;1.27;1.20;;;;;;;;;;5067460;28;20498;-82
2023/03/11 03:02:35;;;;;;;1.55;1.35;;;;;;;;;;5071741;28;20376;-82
2023/03/11 03:05:02;;;;;;;1.45;1.35;;;;;;;;;;5073354;28;20857;-82
2023/03/11 03:07:28;;;;;;;1.38;1.27;;;;;;;;;;5071539;28;20861;-82
2023/03/11 03:09:54;;;;;;;1.83;1.70;;;;;;;;;;5073193;28;20867;-82
2023/03/11 03:12:20;;;;;;;1.30;1.20;;;;;;;;;;5073059;28;20379;-82
2023/03/11 03:14:46;;;;;;;1.75;1.30;;;;;;;;;;5073042;28;20470;-82
2023/03/11 03:17:12;;;;;;;1.55;1.45;;;;;;;;;;5073116;28;20451;-82
2023/03/11 03:19:38;;;;;;;1.48;1.38;;;;;;;;;;5072714;28;20811;-82
2023/03/11 03:22:04;;;;;;;1.30;1.20;;;;;;;;;;5064731;28;20386;-82
2023/03/11 03:24:30;;;;;;;1.63;1.50;;;;;;;;;;5069515;28;20403;-82
2023/03/11 03:26:56;;;;;;;1.52;1.42;;;;;;;;;;5072980;28;20395;-82
2023/03/11 03:29:22;;;;;;;1.50;1.40;;;;;;;;;;5072677;28;20380;-82
2023/03/11 03:31:48;;;;;;;1.73;1.63;;;;;;;;;;5072774;28;20402;-82
2023/03/11 03:34:14;;;;;;;1.60;1.50;;;;;;;;;;5072666;28;20495;-82
2023/03/11 03:36:40;;;;;;;1.40;1.30;;;;;;;;;;5072565;28;20388;-82
2023/03/11 03:39:06;;;;;;;1.50;1.40;;;;;;;;;;5072639;28;20384;-82
2023/03/11 03:41:32;;;;;;;2.22;1.33;;;;;;;;;;5072569;28;20451;-81
2023/03/11 03:43:58;;;;;;;1.43;1.30;;;;;;;;;;5059496;28;20513;-82
2023/03/11 03:46:24;;;;;;;1.60;1.50;;;;;;;;;;5072611;28;20753;-82
2023/03/11 03:48:50;;;;;;;1.60;1.50;;;;;;;;;;5072283;28;20379;-82
2023/03/11 03:51:16;;;;;;;1.38;1.27;;;;;;;;;;5071922;28;20390;-82
2023/03/11 03:53:42;;;;;;;1.65;1.55;;;;;;;;;;5072286;28;20404;-82
2023/03/11 03:56:10;;;;;;;1.50;1.40;;;;;;;;;;5072354;28;20871;-82
2023/03/11 03:58:36;;;;;;;1.38;1.27;;;;;;;;;;5072306;28;20459;-82
2023/03/11 04:01:03;;;;;;;1.40;1.25;;;;;;;;;;5071959;28;20383;-82
2023/03/11 04:03:29;;;;;;;1.40;1.30;;;;;;;;;;5072165;28;20861;-82
2023/03/11 04:06:04;;;;;;;1.58;1.40;;;;;;;;;;5072133;28;20418;-82
2023/03/11 04:08:30;;;;;;;1.50;1.40;;;;;;;;;;5072085;28;20400;-82
2023/03/11 04:10:57;;;;;;;1.30;1.20;;;;;;;;;;5071992;28;20454;-82
2023/03/11 04:13:23;;;;;;;1.40;1.30;;;;;;;;;;5071944;28;20399;-82
2023/03/11 04:15:49;;;;;;;1.20;1.10;;;;;;;;;;5071843;28;20376;-82
2023/03/11 04:18:15;;;;;;;1.75;1.20;;;;;;;;;;5071539;28;20448;-82
2023/03/11 04:20:41;;;;;;;1.75;1.30;;;;;;;;;;5071784;28;20380;-82
2023/03/11 04:23:07;;;;;;;1.93;1.30;;;;;;;;;;5063067;28;20894;-82
2023/03/11 04:25:33;;;;;;;1.48;1.20;;;;;;;;;;5071958;28;20386;-82
2023/03/11 04:27:59;;;;;;;1.20;1.10;;;;;;;;;;5072054;28;20868;-82
2023/03/11 04:30:25;;;;;;;1.20;1.10;;;;;;;;;;5076855;28;20470;-82
2023/03/11 04:32:51;;;;;;;1.20;1.10;;;;;;;;;;5082225;28;20852;-82
2023/03/11 04:35:17;;;;;;;1.50;1.17;;;;;;;;;;5082588;28;20421;-82
2023/03/11 04:37:43;;;;;;;1.30;1.20;;;;;;;;;;5084054;28;20386;-82
2023/03/11 04:40:10;;;;;;;1.27;1.00;;;;;;;;;;5080446;28;20384;-82
2023/03/11 04:42:36;;;;;;;1.30;1.20;;;;;;;;;;5076246;28;20425;-82
2023/03/11 04:45:02;;;;;;;1.30;1.10;;;;;;;;;;5072715;28;20383;-82
2023/03/11 04:47:28;;;;;;;1.30;1.20;;;;;;;;;;5070389;28;20382;-82
2023/03/11 04:49:55;;;;;;;2.00;1.20;;;;;;;;;;5055794;28;20379;-82
2023/03/11 04:52:21;;;;;;;1.20;1.10;;;;;;;;;;5071582;28;20388;-82
2023/03/11 04:54:47;;;;;;;1.50;1.20;;;;;;;;;;5071636;28;20408;-82
2023/03/11 04:57:13;;;;;;;1.30;1.20;;;;;;;;;;5071450;28;20375;-82
2023/03/11 04:59:39;;;;;;;2.05;1.40;;;;;;;;;;5071442;28;20388;-82
2023/03/11 05:02:05;;;;;;;1.30;1.20;;;;;;;;;;5068597;28;20380;-82
2023/03/11 05:04:31;;;;;;;3.60;2.28;;;;;;;;;;5071398;28;20467;-82
2023/03/11 05:06:57;;;;;;;1.85;1.60;;;;;;;;;;5071249;28;20379;-82
2023/03/11 05:09:23;;;;;;;2.05;1.70;;;;;;;;;;5066496;28;20455;-82
2023/03/11 05:11:49;;;;;;;3.80;2.80;;;;;;;;;;5061473;28;20414;-82
2023/03/11 05:14:15;;;;;;;3.40;3.03;;;;;;;;;;5072520;28;20740;-81
2023/03/11 05:16:41;;;;;;;3.40;3.10;;;;;;;;;;5075403;28;20375;-81
2023/03/11 05:19:29;;;;;;;4.00;2.97;;;;;;;;;;5074997;28;21105;-81
2023/03/11 05:21:53;;;;;;;2.35;2.10;;;;;;;;;;5071299;28;20742;-81
2023/03/11 05:24:19;;;;;;;2.13;1.87;;;;;;;;;;5070798;28;20452;-81
2023/03/11 05:26:45;;;;;;;1.85;1.75;;;;;;;;;;5072602;28;20375;-81
2023/03/11 05:29:11;;;;;;;1.63;1.40;;;;;;;;;;5060906;28;20401;-83
2023/03/11 05:31:37;;;;;;;1.60;1.30;;;;;;;;;;5057082;28;20460;-83
2023/03/11 05:34:04;;;;;;;2.05;1.30;;;;;;;;;;5066242;28;21002;-82
2023/03/11 05:36:30;;;;;;;1.10;1.00;;;;;;;;;;5073893;28;20386;-82
2023/03/11 05:38:56;;;;;;;1.98;1.30;;;;;;;;;;5064784;28;20376;-82
2023/03/11 05:41:22;;;;;;;2.57;1.40;;;;;;;;;;5074952;28;20408;-82
2023/03/11 05:43:48;;;;;;;1.80;1.30;;;;;;;;;;5074840;28;20399;-82
2023/03/11 05:46:14;;;;;;;1.70;1.10;;;;;;;;;;5074915;28;20383;-82
2023/03/11 05:48:40;;;;;;;1.30;1.10;;;;;;;;;;5072790;28;20403;-82
2023/03/11 05:51:07;;;;;;;1.50;1.10;;;;;;;;;;5060729;28;20387;-82
2023/03/11 05:53:33;;;;;;;1.27;1.10;;;;;;;;;;5062558;28;20879;-82
2023/03/11 05:55:59;;;;;;;1.13;1.00;;;;;;;;;;5048427;28;20970;-82
2023/03/11 05:58:26;;;;;;;1.25;1.10;;;;;;;;;;5058658;28;20853;-82
2023/03/11 06:00:52;;;;;;;2.05;0.98;;;;;;;;;;5074565;28;20368;-82
2023/03/11 06:03:18;;;;;;;1.45;1.30;;;;;;;;;;5063060;28;20480;-82
2023/03/11 06:05:48;;;;;;;1.37;1.10;;;;;;;;;;5070497;28;20388;-82
2023/03/11 06:08:14;;;;;;;1.25;0.90;;;;;;;;;;5057663;28;20947;-83
2023/03/11 06:10:41;;;;;;;1.77;1.00;;;;;;;;;;5043977;28;20395;-83
2023/03/11 06:13:07;;;;;;;2.08;1.00;;;;;;;;;;5048464;28;20791;-82
2023/03/11 06:15:36;;;;;;;1.80;1.00;;;;;;;;;;5075851;28;20437;-83
2023/03/11 06:18:02;;;;;;;1.63;1.10;;;;;;;;;;5056026;28;20378;-82
2023/03/11 06:20:29;;;;;;;1.50;1.00;;;;;;;;;;5074183;28;20364;-82
2023/03/11 06:22:55;;;;;;;1.90;1.10;;;;;;;;;;5065357;28;20441;-83
2023/03/11 06:25:21;;;;;;;2.03;0.90;;;;;;;;;;5065142;28;20462;-83
2023/03/11 06:27:51;;;;;;;1.60;1.10;;;;;;;;;;5069437;28;20391;-83
2023/03/11 06:30:17;;;;;;;2.27;0.90;;;;;;;;;;5074039;28;20426;-83
2023/03/11 06:32:45;;;;;;;0.90;0.70;;;;;;;;;;5073934;28;20426;-82
2023/03/11 06:35:11;;;;;;;0.93;0.70;;;;;;;;;;5073769;28;20407;-81
2023/03/11 06:37:37;;;;;;;1.38;0.80;;;;;;;;;;5072084;28;20858;-82
2023/03/11 06:40:04;;;;;;;1.27;0.57;;;;;;;;;;5068218;28;20376;-81
2023/03/11 06:42:30;;;;;;;1.30;0.90;;;;;;;;;;5073745;28;20410;-82
2023/03/11 06:44:56;;;;;;;2.03;1.00;;;;;;;;;;5073786;28;20388;-81
2023/03/11 06:47:22;;;;;;;0.93;0.77;;;;;;;;;;5073635;28;20880;-81
2023/03/11 06:49:49;;;;;;;1.10;0.70;;;;;;;;;;5061809;28;20399;-82
2023/03/11 06:52:15;;;;;;;1.35;0.77;;;;;;;;;;5059566;28;20432;-81
2023/03/11 06:54:41;;;;;;;2.13;0.90;;;;;;;;;;5055879;28;20413;-81
2023/03/11 06:57:07;;;;;;;0.80;0.70;;;;;;;;;;5068862;28;20454;-82
2023/03/11 06:59:33;;;;;;;1.63;0.70;;;;;;;;;;5071776;28;20390;-81
2023/03/11 07:02:00;;;;;;;1.63;0.60;;;;;;;;;;5063766;28;20833;-83
2023/03/11 07:04:26;;;;;;;0.90;0.60;;;;;;;;;;5058225;28;20433;-83
2023/03/11 07:06:52;;;;;;;1.00;0.70;;;;;;;;;;5070725;28;20467;-83
2023/03/11 07:09:21;;;;;;;1.27;0.80;;;;;;;;;;5069635;28;20421;-83
2023/03/11 07:11:47;;;;;;;1.73;0.60;;;;;;;;;;5063065;28;20426;-83
2023/03/11 07:14:13;;;;;;;1.30;0.70;;;;;;;;;;5073195;28;20442;-83
2023/03/11 07:16:39;;;;;;;1.80;0.70;;;;;;;;;;5072057;28;20480;-84
2023/03/11 07:19:05;;;;;;;1.13;0.75;;;;;;;;;;5072759;28;20395;-83
2023/03/11 07:21:32;;;;;;;1.10;1.00;;;;;;;;;;5069883;28;20842;-83
2023/03/11 07:23:59;;;;;;;1.92;1.17;;;;;;;;;;5065362;28;20466;-86
2023/03/11 07:26:26;;;;;;;1.50;0.80;;;;;;;;;;5069718;28;20387;-85
2023/03/11 07:28:53;;;;;;;1.70;0.90;;;;;;;;;;5045109;28;20385;-86
2023/03/11 07:31:20;;;;;;;1.85;0.80;;;;;;;;;;5050641;28;20391;-85
2023/03/11 07:33:46;;;;;;;1.02;0.85;;;;;;;;;;5058454;28;20445;-80
2023/03/11 07:36:16;;;;;;;1.23;0.70;;;;;;;;;;5057405;28;20403;-81
2023/03/11 07:38:43;;;;;;;2.05;0.80;;;;;;;;;;5063153;28;20399;-80
2023/03/11 07:41:10;;;;;;;1.98;0.90;;;;;;;;;;5065227;28;20376;-79
2023/03/11 07:43:36;;;;;;;1.13;0.80;;;;;;;;;;5066200;28;20390;-80
2023/03/11 07:46:10;;;;;;;1.55;0.73;;;;;;;;;;5064644;28;20380;-80
2023/03/11 07:48:36;;;;;;;1.30;0.60;;;;;;;;;;5072432;28;20447;-80
2023/03/11 07:51:07;;;;;;;1.25;0.70;;;;;;;;;;5072246;28;20380;-80
2023/03/11 07:53:33;;;;;;;2.08;0.70;;;;;;;;;;5072981;28;20403;-80
2023/03/11 07:56:00;;;;;;;1.60;0.70;;;;;;;;;;5068498;28;20376;-80
2023/03/11 07:58:26;;;;;;;2.33;0.80;;;;;;;;;;5076614;28;20395;-80
2023/03/11 08:00:53;;;;;;;2.42;0.77;;;;;;;;;;5077361;28;20379;-80
2023/03/11 08:03:19;;;;;;;1.25;0.70;;;;;;;;;;5079160;28;20388;-80
2023/03/11 08:05:45;;;;;;;0.87;0.60;;;;;;;;;;5080710;28;20391;-80
2023/03/11 08:08:11;;;;;;;1.95;0.80;;;;;;;;;;5075951;28;20380;-81
2023/03/11 08:10:38;;;;;;;1.38;0.70;;;;;;;;;;5074234;28;20376;-80
2023/03/11 08:13:04;;;;;;;1.73;0.80;;;;;;;;;;5074453;28;20391;-80
2023/03/11 08:15:30;;;;;;;1.48;0.70;;;;;;;;;;5075241;28;20376;-80
2023/03/11 08:17:56;;;;;;;1.27;0.80;;;;;;;;;;5071314;28;20396;-80
2023/03/11 08:20:22;;;;;;;1.80;0.75;;;;;;;;;;5072192;28;20872;-81
2023/03/11 08:22:48;;;;;;;3.22;0.93;;;;;;;;;;5072038;28;20419;-80
2023/03/11 08:25:14;;;;;;;2.42;0.73;;;;;;;;;;5072024;28;20865;-80
2023/03/11 08:27:40;;;;;;;3.00;0.98;;;;;;;;;;5067069;28;20383;-79
2023/03/11 08:30:07;;;;;;;1.20;0.60;;;;;;;;;;5072741;28;20382;-80
2023/03/11 08:32:33;;;;;;;1.50;0.70;;;;;;;;;;5063006;28;20420;-80
2023/03/11 08:34:59;;;;;;;2.50;0.90;;;;;;;;;;5068924;28;20442;-80
2023/03/11 08:37:25;;;;;;;1.15;0.60;;;;;;;;;;5071547;28;20390;-81
2023/03/11 08:39:51;;;;;;;1.38;0.70;;;;;;;;;;5070196;28;20857;-80
2023/03/11 08:42:18;;;;;;;1.67;0.90;;;;;;;;;;5062560;28;20391;-80
2023/03/11 08:44:44;;;;;;;1.70;0.90;;;;;;;;;;5071791;28;20895;-81
2023/03/11 08:47:10;;;;;;;1.40;0.80;;;;;;;;;;5070927;28;20431;-80
2023/03/11 08:49:37;;;;;;;0.90;0.80;;;;;;;;;;5071379;28;20844;-81
2023/03/11 08:52:04;;;;;;;1.30;0.60;;;;;;;;;;5071516;28;20376;-81
2023/03/11 08:54:30;;;;;;;1.23;0.80;;;;;;;;;;5069758;28;20928;-81
2023/03/11 08:56:55;;;;;;;0.73;0.63;;;;;;;;;;5054823;28;20383;-80
2023/03/11 08:59:21;;;;;;;1.80;0.90;;;;;;;;;;5071405;28;20455;-80
2023/03/11 09:01:47;;;;;;;1.30;0.70;;;;;;;;;;5071480;28;20800;-80
2023/03/11 09:04:13;;;;;;;1.38;0.80;;;;;;;;;;5071274;28;20393;-80
2023/03/11 09:06:43;;;;;;;2.13;1.40;;;;;;;;;;5071376;28;20411;-80
2023/03/11 09:09:10;;;;;;;1.42;0.70;;;;;;;;;;5071192;28;20392;-80
2023/03/11 09:11:36;;;;;;;1.80;1.23;;;;;;;;;;5071456;28;20398;-80
2023/03/11 09:14:02;;;;;;;5.28;3.67;;;;;;;;;;5064523;28;20946;-81
2023/03/11 09:16:28;;;;;;;1.27;0.90;;;;;;;;;;5071215;28;20947;-80
2023/03/11 09:18:54;;;;;;;7.13;6.13;;;;;;;;;;5070946;28;20404;-81
2023/03/11 09:21:21;;;;;;;1.50;0.80;;;;;;;;;;5071160;28;20477;-80
2023/03/11 09:23:47;;;;;;;2.17;0.90;;;;;;;;;;5071300;28;20873;-81
2023/03/11 09:26:14;;;;;;;1.60;0.80;;;;;;;;;;5071147;28;20787;-80
2023/03/11 09:28:40;;;;;;;2.92;1.20;;;;;;;;;;5071010;28;20380;-81
2023/03/11 09:31:06;;;;;;;2.00;1.38;;;;;;;;;;5071039;28;20437;-80
2023/03/11 09:33:37;;;;;;;1.92;1.30;;;;;;;;;;5062144;28;20396;-80
2023/03/11 09:36:03;;;;;;;5.80;4.90;;;;;;;;;;5071005;28;20372;-80
2023/03/11 09:38:29;;;;;;;1.60;0.73;;;;;;;;;;5071063;28;20388;-80
2023/03/11 09:41:01;;;;;;;2.33;0.80;;;;;;;;;;5071109;28;20379;-79
2023/03/11 09:43:38;;;;;;;1.33;0.80;;;;;;;;;;5070884;28;20379;-79
2023/03/11 09:46:13;;;;;;;2.15;0.70;;;;;;;;;;5070934;28;20396;-79
2023/03/11 09:48:52;;;;;;;1.10;0.50;;;;;;;;;;5070840;28;20467;-79
2023/03/11 09:51:29;;;;;;;1.30;0.60;;;;;;;;;;5070878;28;20538;-79
2023/03/11 09:53:59;;;;;;;1.77;0.70;;;;;;;;;;5070848;28;20447;-79
2023/03/11 09:56:25;;;;;;;1.30;0.60;;;;;;;;;;5061694;28;20450;-79
2023/03/11 09:58:56;;;;;;;1.30;0.80;;;;;;;;;;5071337;28;20429;-79
2023/03/11 10:01:30;;;;;;;2.43;0.70;;;;;;;;;;5074636;28;20387;-80
2023/03/11 10:04:00;;;;;;;1.02;0.73;;;;;;;;;;5073152;28;20458;-80
2023/03/11 10:06:28;;;;;;;1.65;0.70;;;;;;;;;;5074603;28;20936;-79
2023/03/11 10:09:01;;;;;;;1.85;0.70;;;;;;;;;;5074287;28;20383;-79
2023/03/11 10:11:32;;;;;;;1.55;0.70;;;;;;;;;;5074369;28;20384;-79
2023/03/11 10:14:16;;;;;;;1.50;0.80;;;;;;;;;;5074212;28;20435;-79
2023/03/11 10:17:00;;;;;;;1.30;0.70;;;;;;;;;;5074244;28;20368;-80
2023/03/11 10:19:38;;;;;;;2.20;1.10;;;;;;;;;;5073888;28;20457;-80
2023/03/11 10:22:07;;;;;;;2.00;0.90;;;;;;;;;;5067415;28;20404;-79
2023/03/11 10:24:33;;;;;;;0.95;0.70;;;;;;;;;;5051318;28;20388;-79
2023/03/11 10:27:01;;;;;;;1.30;1.00;;;;;;;;;;5048988;28;20397;-79
2023/03/11 10:29:29;;;;;;;1.77;1.23;;;;;;;;;;5069798;28;20795;-79
2023/03/11 10:32:04;;;;;;;2.03;1.20;;;;;;;;;;5067701;28;20465;-79
2023/03/11 10:34:37;;;;;;;3.72;3.03;;;;;;;;;;5066876;28;20414;-79
2023/03/11 10:37:03;;;;;;;2.42;1.10;;;;;;;;;;5073987;28;20376;-80
2023/03/11 10:39:30;;;;;;;1.77;1.30;;;;;;;;;;5067102;28;20399;-78
2023/03/11 10:42:04;;;;;;;2.00;1.37;;;;;;;;;;5072329;28;20883;-79
2023/03/11 10:44:37;;;;;;;3.80;1.40;;;;;;;;;;5053394;28;20741;-79
2023/03/11 10:47:04;;;;;;;2.97;1.52;;;;;;;;;;5051521;28;20887;-79
2023/03/11 10:49:31;;;;;;;2.05;1.40;;;;;;;;;;5069273;28;20418;-78
2023/03/11 10:51:57;;;;;;;3.35;1.70;;;;;;;;;;5073593;28;20437;-78
2023/03/11 10:54:45;;;;;;;3.03;2.00;;;;;;;;;;5073718;28;20473;-79
2023/03/11 10:57:25;;;;;;;2.33;1.80;;;;;;;;;;5073381;28;20380;-78
2023/03/11 10:59:52;;;;;;;2.70;1.70;;;;;;;;;;5071773;28;20410;-79
2023/03/11 11:02:21;;;;;;;2.60;1.60;;;;;;;;;;5073073;28;20403;-80
2023/03/11 11:04:48;;;;;;;3.40;1.55;;;;;;;;;;5065932;28;20391;-81
2023/03/11 11:07:31;;;;;;;2.55;1.48;;;;;;;;;;5041458;28;20387;-81
2023/03/11 11:10:12;;;;;;;3.23;1.50;;;;;;;;;;5044009;28;20437;-81
2023/03/11 11:12:58;;;;;;;2.42;1.23;;;;;;;;;;5052954;28;20385;-80
2023/03/11 11:15:24;;;;;;;1.87;1.20;;;;;;;;;;5065685;28;20475;-81
2023/03/11 11:17:51;;;;;;;1.63;1.00;;;;;;;;;;5072799;28;20419;-81
2023/03/11 11:20:18;;;;;;;2.13;1.20;;;;;;;;;;5073254;28;20383;-81
2023/03/11 11:22:52;;;;;;;2.90;1.10;;;;;;;;;;5071182;28;21417;-84
2023/03/11 11:25:44;;;;;;;2.15;1.05;;;;;;;;;;5060963;28;20459;-83
2023/03/11 11:28:18;;;;;;;1.33;0.90;;;;;;;;;;5061662;28;20899;-83
2023/03/11 11:30:54;;;;;;;1.52;0.80;;;;;;;;;;5054095;28;20389;-82
2023/03/11 11:33:22;;;;;;;1.58;0.90;;;;;;;;;;5066185;28;20380;-81
2023/03/11 11:35:53;;;;;;;1.67;0.77;;;;;;;;;;5063019;28;20376;-80
2023/03/11 11:38:22;;;;;;;1.87;1.13;;;;;;;;;;5066168;28;20392;-79
2023/03/11 11:40:49;;;;;;;1.65;1.15;;;;;;;;;;5077350;28;20376;-81
2023/03/11 11:43:17;;;;;;;1.85;1.40;;;;;;;;;;5051367;28;20458;-81
2023/03/11 11:45:48;;;;;;;1.42;1.10;;;;;;;;;;5048379;28;20436;-79
2023/03/11 11:48:19;;;;;;;1.98;1.20;;;;;;;;;;5041085;28;20398;-82
2023/03/11 11:50:48;;;;;;;1.63;1.02;;;;;;;;;;5045297;28;20379;-80
2023/03/11 11:53:26;;;;;;;1.60;0.95;;;;;;;;;;5073190;28;20868;-81
2023/03/11 11:55:53;;;;;;;1.25;0.95;;;;;;;;;;5057505;28;20392;-80
2023/03/11 11:58:19;;;;;;;1.40;1.20;;;;;;;;;;5072573;28;20410;-80
2023/03/11 12:00:51;;;;;;;2.85;1.10;;;;;;;;;;5062707;28;20478;-80
2023/03/11 12:03:35;;;;;;;1.70;1.13;;;;;;;;;;5064619;28;20392;-80
2023/03/11 12:06:06;;;;;;;2.20;1.00;;;;;;;;;;5072601;28;20463;-82
2023/03/11 12:08:38;;;;;;;0.80;0.80;;;;;;;;;;5053451;28;20487;-81
2023/03/11 12:11:06;;;;;;;1.35;1.00;;;;;;;;;;5059330;22;20500;-81
2023/03/11 12:13:43;;;;;;;1.40;0.82;;;;;;;;;;5028978;28;20399;-81
2023/03/11 12:16:25;;;;;;;0.93;0.82;;;;;;;;;;5031306;28;20391;-80
2023/03/11 12:18:54;;;;;;;1.50;1.10;;;;;;;;;;5031837;28;20812;-81
2023/03/11 12:21:42;;;;;;;1.50;1.10;;;;;;;;;;5031359;28;20453;-81
2023/03/11 12:24:17;;;;;;;4.47;3.70;;;;;;;;;;5032120;28;20383;-81
2023/03/11 12:26:45;;;;;;;2.60;1.13;;;;;;;;;;5031979;28;20379;-81
2023/03/11 12:29:33;;;;;;;1.10;1.00;;;;;;;;;;5032973;28;20780;-81
2023/03/11 12:32:00;;;;;;;1.40;1.08;;;;;;;;;;5031800;28;20891;-81
2023/03/11 12:34:27;;;;;;;1.70;1.50;;;;;;;;;;5031846;28;20415;-81
2023/03/11 12:37:03;;;;;;;1.17;1.02;;;;;;;;;;5030805;28;20729;-80
2023/03/11 12:39:30;;;;;;;2.33;1.50;;;;;;;;;;5031825;28;20387;-80
2023/03/11 12:42:11;;;;;;;1.85;1.40;;;;;;;;;;5031742;28;20381;-80
2023/03/11 12:44:38;;;;;;;1.65;1.30;;;;;;;;;;5031835;28;20982;-80
2023/03/11 12:47:10;;;;;;;1.63;1.52;;;;;;;;;;5024496;28;20876;-81
2023/03/11 12:49:40;;;;;;;2.25;1.25;;;;;;;;;;5031539;28;20379;-81
2023/03/11 12:52:12;;;;;;;2.05;1.40;;;;;;;;;;5031631;28;20375;-81
2023/03/11 12:54:42;;;;;;;2.05;1.42;;;;;;;;;;5039293;28;20405;-81
2023/03/11 12:57:17;;;;;;;2.33;1.42;;;;;;;;;;5034788;28;20423;-81
2023/03/11 12:59:52;;;;;;;1.33;1.23;;;;;;;;;;5031457;28;20744;-81
2023/03/11 13:02:37;;;;;;;1.38;1.23;;;;;;;;;;5031401;28;20537;-80
2023/03/11 13:05:14;;;;;;;1.80;1.30;;;;;;;;;;5031522;28;20395;-80
2023/03/11 13:07:47;;;;;;;1.30;1.20;;;;;;;;;;5033108;28;20948;-80
2023/03/11 13:10:16;;;;;;;1.30;1.20;;;;;;;;;;5039843;28;20415;-81
2023/03/11 13:12:42;;;;;;;2.20;1.30;;;;;;;;;;5031271;28;20395;-81
2023/03/11 13:15:20;;;;;;;1.92;1.02;;;;;;;;;;5033925;28;20410;-81
2023/03/11 13:17:57;;;;;;;2.28;1.40;;;;;;;;;;5031254;28;20381;-80
2023/03/11 13:20:40;;;;;;;2.67;1.25;;;;;;;;;;5030069;28;20391;-81
2023/03/11 13:23:08;;;;;;;2.08;1.35;;;;;;;;;;5031281;28;20470;-81
2023/03/11 13:25:37;;;;;;;1.40;1.20;;;;;;;;;;5031446;28;20387;-81
2023/03/11 13:28:15;;;;;;;1.20;1.10;;;;;;;;;;5031412;28;20391;-81
2023/03/11 13:30:46;;;;;;;1.45;1.20;;;;;;;;;;5031356;28;20394;-81
2023/03/11 13:33:27;;;;;;;2.45;1.45;;;;;;;;;;5040536;28;20382;-81
2023/03/11 13:36:14;;;;;;;1.92;1.42;;;;;;;;;;5038986;28;20444;-81
2023/03/11 13:38:49;;;;;;;1.50;1.20;;;;;;;;;;5036864;28;20915;-81
2023/03/11 13:41:35;;;;;;;1.30;1.20;;;;;;;;;;5035700;28;20477;-81
2023/03/11 13:44:20;;;;;;;1.40;1.10;;;;;;;;;;5035274;28;20390;-81
2023/03/11 13:46:48;;;;;;;1.40;1.00;;;;;;;;;;5035356;28;20469;-81
2023/03/11 13:49:33;;;;;;;1.92;0.80;;;;;;;;;;5028301;28;20389;-81
2023/03/11 13:52:01;;;;;;;0.55;0.55;;;;;;;;;;5035318;28;20395;-81
2023/03/11 13:54:43;;;;;;;0.70;0.70;;;;;;;;;;5035368;28;20784;-81
2023/03/11 13:57:35;;;;;;;2.03;0.88;;;;;;;;;;5034903;28;20422;-80
2023/03/11 14:00:16;;;;;;;1.30;0.93;;;;;;;;;;5032977;28;20414;-80
2023/03/11 14:02:47;;;;;;;0.80;0.80;;;;;;;;;;5035007;28;20375;-81
2023/03/11 14:05:15;;;;;;;1.43;1.00;;;;;;;;;;5034715;28;20944;-81
2023/03/11 14:07:41;;;;;;;1.33;1.23;;;;;;;;;;5035009;28;20414;-80
2023/03/11 14:10:25;;;;;;;1.40;1.30;;;;;;;;;;5034825;28;20839;-80
2023/03/11 14:12:52;;;;;;;2.60;1.65;;;;;;;;;;5034642;28;20379;-80
2023/03/11 14:15:20;;;;;;;1.70;1.40;;;;;;;;;;5034676;28;20399;-80
2023/03/11 14:17:46;;;;;;;1.98;1.52;;;;;;;;;;5034412;28;20379;-80
2023/03/11 14:20:15;;;;;;;1.77;1.35;;;;;;;;;;5034746;28;20375;-80
2023/03/11 14:22:43;;;;;;;1.35;1.23;;;;;;;;;;5035531;28;20787;-81
2023/03/11 14:25:10;;;;;;;1.55;1.10;;;;;;;;;;5035306;28;20416;-80
2023/03/11 14:27:39;;;;;;;1.30;1.20;;;;;;;;;;5034614;28;20379;-81
2023/03/11 14:30:05;;;;;;;1.30;1.10;;;;;;;;;;5034712;28;20391;-80
2023/03/11 14:32:33;;;;;;;1.35;1.13;;;;;;;;;;5034684;28;20433;-80
2023/03/11 14:34:59;;;;;;;1.20;1.10;;;;;;;;;;5034573;28;20434;-80
2023/03/11 14:37:30;;;;;;;1.77;1.40;;;;;;;;;;5035926;28;20411;-80
2023/03/11 14:39:55;;;;;;;1.42;1.33;;;;;;;;;;5034649;28;20433;-80
2023/03/11 14:42:25;;;;;;;1.20;1.10;;;;;;;;;;5034146;28;20862;-80
2023/03/11 14:45:04;;;;;;;1.20;1.10;;;;;;;;;;5033714;28;20379;-80
2023/03/11 14:47:46;;;;;;;1.38;1.27;;;;;;;;;;5033471;28;20943;-81
2023/03/11 14:50:16;;;;;;;1.30;1.20;;;;;;;;;;5033868;28;20394;-80
2023/03/11 14:52:45;;;;;;;1.30;1.20;;;;;;;;;;5036505;28;20390;-80